Kimberly — WDE7149 — position and weather

sailwx.info

Track history (hours):
 
Tides and Currents Weather Stations Pressure Air Temp Water Temp Dewpoint Dewpoint Depression Visibility Wind Speed Wind Dir Waves Ship Positions

Kimberly

Owner: Jelcick, Thomas G, Hansville, WA. More information available from US FCC via Universal Licensing System and Coast Guard Vessel Documentation Center.

Last reported at 2017-Sep-30 01:59 UTC. Time now 2017-Oct-22 19:10 UTC.
Position N 47°44' W 122°33'.
Warning: this ship's position is 22 days out of date.

Length 33 m; draft 7 m.

Type: Sailing vessel. MMSI: 367389630.

Date/timePositionNaut miles runAvg speedWind from/ knotsBaromVisibWave heightAir tempDewpointWater temp
2017-Sep-30 01:59N 47°44' W 122°33'0 0.0
2017-Sep-30 01:28N 47°44' W 122°33'0 0.0
2017-Sep-30 00:58N 47°44' W 122°33'0 0.0
2017-Sep-30 00:28N 47°44' W 122°33'0 0.0
2017-Sep-29 23:58N 47°44' W 122°33'0 0.0
2017-Sep-29 23:27N 47°44' W 122°33'5 9.3
2017-Sep-29 22:58N 47°48' W 122°30'0 0.0
2017-Sep-29 22:29N 47°48' W 122°30'0 0.0
2017-Sep-29 21:58N 47°48' W 122°30'0 0.0
2017-Sep-29 21:30N 47°48' W 122°30'510.0
2017-Sep-29 20:59N 47°46' W 122°37'2 3.6
2017-Sep-29 20:28N 47°45' W 122°40'818.6
2017-Sep-29 20:00N 47°37' W 122°43'2545.3
2017-Sep-29 19:27N 47°14' W 122°28'2038.8
2017-Sep-29 18:56N 47°02' W 122°52'1 2.4
2017-Sep-29 18:28N 47°03' W 122°53'0 0.0
2017-Sep-29 18:00N 47°03' W 122°53'0 0.0
2017-Sep-29 17:27N 47°03' W 122°53'511.3
2017-Sep-29 17:00N 46°58' W 122°56'3 5.3
2017-Sep-29 16:29N 46°56' W 122°53'511.5
2017-Sep-29 16:00N 47°02' W 122°54'1 2.3
2017-Sep-29 15:28N 47°03' W 122°53'0 0.0
2017-Sep-29 14:58N 47°03' W 122°53'0 0.0
2017-Sep-29 14:28N 47°03' W 122°53'0 0.0
2017-Sep-29 13:59N 47°03' W 122°53'0 0.0
2017-Sep-29 13:29N 47°03' W 122°53'0 0.0
2017-Sep-29 13:00N 47°03' W 122°53'0 0.0
2017-Sep-29 12:30N 47°03' W 122°53'0 0.0
2017-Sep-29 11:57N 47°03' W 122°53'0 0.0
2017-Sep-29 11:28N 47°03' W 122°53'0 0.0
2017-Sep-29 10:57N 47°03' W 122°53'0 0.0
2017-Sep-29 10:28N 47°03' W 122°53'0 0.0
2017-Sep-29 09:59N 47°03' W 122°53'0 0.0
2017-Sep-29 09:28N 47°03' W 122°53'0 0.0
2017-Sep-29 08:59N 47°03' W 122°53'0 0.0
2017-Sep-29 08:29N 47°03' W 122°53'0 0.0
2017-Sep-29 08:00N 47°03' W 122°53'0 0.0
2017-Sep-29 07:30N 47°03' W 122°53'0 0.0
2017-Sep-29 06:57N 47°03' W 122°53'0 0.0
2017-Sep-29 06:28N 47°03' W 122°53'0 0.0
2017-Sep-29 05:59N 47°03' W 122°53'0 0.0
2017-Sep-29 05:29N 47°03' W 122°53'0 0.0
2017-Sep-29 05:00N 47°03' W 122°53'0 0.0
2017-Sep-29 04:30N 47°03' W 122°53'0 0.0
2017-Sep-29 04:00N 47°03' W 122°53'0 0.1
2017-Sep-29 03:27N 47°03' W 122°53'0 0.1
2017-Sep-29 03:00N 47°03' W 122°53'0 0.0
2017-Sep-29 02:30N 47°03' W 122°53'0 0.0
2017-Sep-29 01:58N 47°03' W 122°53'0 0.0
2017-Sep-29 01:29N 47°03' W 122°53'0 0.0
2017-Sep-29 00:58N 47°03' W 122°53'0 0.0
2017-Sep-29 00:29N 47°03' W 122°53'0 0.0
2017-Sep-28 23:59N 47°03' W 122°53'0 0.1
2017-Sep-28 23:29N 47°03' W 122°54'713.3
2017-Sep-28 22:59N 46°56' W 122°53'0 0.0
2017-Sep-28 22:29N 46°56' W 122°53'0 0.0
2017-Sep-28 22:00N 46°56' W 122°53'0 0.0
2017-Sep-28 21:28N 46°56' W 122°53'3 6.0
2017-Sep-28 20:59N 46°59' W 122°54'4 8.0
2017-Sep-28 20:29N 47°03' W 122°53'0 0.1
2017-Sep-28 20:00N 47°03' W 122°54'0 0.1
2017-Sep-28 19:30N 47°03' W 122°53'0 0.0
2017-Sep-28 18:57N 47°03' W 122°53'0 0.8
2017-Sep-28 18:30N 47°03' W 122°54'2 3.6
2017-Sep-28 17:58N 47°03' W 122°56'3 4.4
2017-Sep-28 17:21N 47°02' W 122°52'1 3.0
2017-Sep-28 16:59N 47°03' W 122°53'1 0.9
2017-Sep-28 15:49N 47°02' W 122°53'1 2.9
2017-Sep-28 15:27N 47°03' W 122°53'0 0.0
2017-Sep-28 14:58N 47°03' W 122°53'0 0.0
2017-Sep-28 14:28N 47°03' W 122°53'0 0.0
2017-Sep-28 05:32N 47°03' W 122°53'0 0.2
2017-Sep-28 05:29N 47°03' W 122°53'0 0.0
2017-Sep-28 05:00N 47°03' W 122°53'0 0.0
2017-Sep-28 04:28N 47°03' W 122°53'0 0.0
2017-Sep-28 03:57N 47°03' W 122°53'0 0.0
2017-Sep-28 03:28N 47°03' W 122°53'0 0.0
2017-Sep-28 03:00N 47°03' W 122°53'0 0.0
2017-Sep-28 02:30N 47°03' W 122°53'0 0.0
2017-Sep-28 01:57N 47°03' W 122°53'0 0.0
2017-Sep-28 01:28N 47°03' W 122°53'0 0.0
2017-Sep-28 01:00N 47°03' W 122°53'0 0.1
2017-Sep-28 00:29N 47°03' W 122°54'6 9.9
2017-Sep-27 23:54N 47°04' W 122°45'1025.2
2017-Sep-27 23:30N 47°11' W 122°34'0 0.0
2017-Sep-27 23:00N 47°11' W 122°34'1 2.6
2017-Sep-27 22:30N 47°10' W 122°36'1427.5
2017-Sep-27 21:59N 47°03' W 122°54'1 1.1
2017-Sep-27 21:28N 47°03' W 122°53'0 0.0
2017-Sep-27 21:00N 47°03' W 122°53'0 0.0
2017-Sep-27 20:30N 47°03' W 122°53'0 0.0
2017-Sep-27 19:58N 47°03' W 122°53'0 0.1
2017-Sep-27 19:29N 47°03' W 122°54'0 0.1
2017-Sep-27 18:59N 47°03' W 122°53'0 0.0
2017-Sep-27 18:29N 47°03' W 122°53'0 0.0
2017-Sep-27 18:00N 47°03' W 122°53'0 0.0
2017-Sep-27 17:29N 47°03' W 122°53'0 0.0
2017-Sep-27 17:00N 47°03' W 122°53'0 0.0
2017-Sep-27 16:30N 47°03' W 122°53'0 0.0
2017-Sep-27 16:00N 47°03' W 122°53'0 0.0
2017-Sep-27 15:30N 47°03' W 122°53'0 0.0
2017-Sep-27 15:00N 47°03' W 122°53'0 0.0
2017-Sep-27 04:48N 47°03' W 122°53'0 0.0
2017-Sep-27 04:30N 47°03' W 122°53'0 0.0
2017-Sep-27 03:57N 47°03' W 122°53'0 0.0
2017-Sep-27 03:28N 47°03' W 122°53'0 0.0
2017-Sep-27 02:59N 47°03' W 122°53'0 0.0
2017-Sep-27 02:29N 47°03' W 122°53'0 0.0
2017-Sep-27 01:59N 47°03' W 122°53'0 0.0
2017-Sep-27 01:30N 47°03' W 122°53'0 0.0
2017-Sep-27 01:00N 47°03' W 122°53'0 0.0
2017-Sep-27 00:30N 47°03' W 122°53'0 0.0
2017-Sep-27 00:00N 47°03' W 122°53'0 0.0
2017-Sep-26 23:30N 47°03' W 122°53'0 0.0
2017-Sep-26 23:00N 47°03' W 122°53'0 0.0
2017-Sep-26 22:30N 47°03' W 122°53'0 0.0
2017-Sep-26 21:57N 47°03' W 122°53'0 0.0
2017-Sep-26 21:30N 47°03' W 122°53'0 0.0
2017-Sep-26 20:59N 47°03' W 122°53'0 0.0
2017-Sep-26 20:29N 47°03' W 122°53'0 0.0
2017-Sep-26 19:59N 47°03' W 122°53'0 0.0
2017-Sep-26 19:27N 47°03' W 122°53'0 0.0
2017-Sep-26 18:59N 47°03' W 122°53'0 0.0
2017-Sep-26 18:29N 47°03' W 122°53'0 0.0
2017-Sep-26 18:00N 47°03' W 122°53'0 0.0
2017-Sep-26 17:30N 47°03' W 122°53'0 0.0
2017-Sep-26 17:00N 47°03' W 122°53'0 0.0
2017-Sep-26 16:29N 47°03' W 122°53'0 0.0
2017-Sep-26 16:00N 47°03' W 122°53'0 0.0
2017-Sep-26 15:30N 47°03' W 122°53'0 0.0
2017-Sep-26 14:59N 47°03' W 122°53'0 0.0
2017-Sep-26 14:26N 47°03' W 122°53'0 0.0
2017-Sep-26 13:59N 47°03' W 122°53'0 0.0
2017-Sep-26 13:30N 47°03' W 122°53'0 0.0
2017-Sep-26 12:59N 47°03' W 122°53'0 0.0
2017-Sep-26 12:30N 47°03' W 122°53'0 0.0
2017-Sep-26 11:57N 47°03' W 122°53'0 0.0
2017-Sep-26 11:28N 47°03' W 122°53'0 0.0
2017-Sep-26 10:58N 47°03' W 122°53'0 0.0
2017-Sep-26 10:28N 47°03' W 122°53'0 0.0
2017-Sep-26 09:58N 47°03' W 122°53'0 0.0
2017-Sep-26 09:29N 47°03' W 122°53'0 0.0
2017-Sep-26 09:00N 47°03' W 122°53'0 0.0
2017-Sep-26 08:30N 47°03' W 122°53'0 0.0
2017-Sep-26 08:00N 47°03' W 122°53'0 0.0
2017-Sep-26 07:27N 47°03' W 122°53'0 0.0
2017-Sep-26 06:58N 47°03' W 122°53'0 0.0
2017-Sep-26 06:28N 47°03' W 122°53'0 0.0
2017-Sep-26 05:59N 47°03' W 122°53'0 0.0
2017-Sep-26 05:30N 47°03' W 122°53'0 0.0
2017-Sep-26 04:57N 47°03' W 122°53'0 0.0
2017-Sep-26 01:37N 47°03' W 122°53'0 0.1
2017-Sep-26 01:30N 47°03' W 122°53'0 0.0
2017-Sep-26 00:58N 47°03' W 122°53'0 0.0
2017-Sep-26 00:28N 47°03' W 122°53'0 0.0
2017-Sep-25 23:58N 47°03' W 122°53'0 0.1
2017-Sep-25 23:28N 47°03' W 122°54'1 1.6
2017-Sep-25 22:59N 47°04' W 122°54'0 1.1
2017-Sep-25 22:31N 47°04' W 122°54'0 0.0
2017-Sep-25 21:59N 47°04' W 122°54'0 0.0
2017-Sep-25 21:28N 47°04' W 122°54'1 1.4
2017-Sep-25 20:59N 47°03' W 122°53'0 0.0
2017-Sep-25 20:30N 47°03' W 122°53'0 0.0
2017-Sep-25 20:00N 47°03' W 122°53'0 0.0
2017-Sep-25 19:30N 47°03' W 122°53'0 0.0
2017-Sep-25 18:59N 47°03' W 122°53'0 0.0
2017-Sep-25 18:29N 47°03' W 122°53'0 0.0
2017-Sep-25 18:00N 47°03' W 122°53'0 0.0
2017-Sep-25 17:30N 47°03' W 122°53'0 0.0
2017-Sep-25 16:57N 47°03' W 122°53'0 0.0
2017-Sep-25 16:30N 47°03' W 122°53'0 0.0
2017-Sep-25 16:00N 47°03' W 122°53'0 0.0
2017-Sep-25 15:30N 47°03' W 122°53'0 0.0
2017-Sep-25 15:00N 47°03' W 122°53'0 0.0
2017-Sep-25 14:30N 47°03' W 122°53'0 0.0
2017-Sep-25 13:54N 47°03' W 122°53'0 0.0
2017-Sep-25 13:29N 47°03' W 122°53'0 0.0
2017-Sep-25 12:59N 47°03' W 122°53'0 0.0
2017-Sep-25 12:30N 47°03' W 122°53'0 0.0
2017-Sep-25 12:00N 47°03' W 122°53'0 0.0
2017-Sep-25 11:27N 47°03' W 122°53'0 0.0
2017-Sep-25 10:58N 47°03' W 122°53'0 0.0
2017-Sep-25 10:28N 47°03' W 122°53'0 0.0
2017-Sep-25 09:59N 47°03' W 122°53'0 0.0
2017-Sep-25 09:29N 47°03' W 122°53'0 0.0
2017-Sep-25 09:00N 47°03' W 122°53'0 0.0
2017-Sep-25 08:30N 47°03' W 122°53'0 0.0
2017-Sep-25 07:57N 47°03' W 122°53'0 0.0
2017-Sep-25 07:28N 47°03' W 122°53'0 0.0
2017-Sep-25 06:59N 47°03' W 122°53'0 0.0
2017-Sep-25 06:29N 47°03' W 122°53'0 0.0
2017-Sep-25 06:00N 47°03' W 122°53'0 0.0
2017-Sep-25 05:30N 47°03' W 122°53'0 0.0
2017-Sep-25 04:58N 47°03' W 122°53'0 0.0
2017-Sep-25 04:28N 47°03' W 122°53'0 0.0
2017-Sep-25 03:59N 47°03' W 122°53'0 0.0
2017-Sep-25 03:28N 47°03' W 122°53'0 0.0
2017-Sep-25 02:58N 47°03' W 122°53'0 0.0
2017-Sep-25 02:30N 47°03' W 122°53'0 0.0
2017-Sep-25 02:00N 47°03' W 122°53'0 0.0
2017-Sep-25 01:27N 47°03' W 122°53'0 0.0
2017-Sep-25 01:00N 47°03' W 122°53'0 0.0
2017-Sep-25 00:27N 47°03' W 122°53'0 0.0
2017-Sep-25 00:00N 47°03' W 122°53'0 0.0
2017-Sep-24 23:27N 47°03' W 122°53'0 0.0
2017-Sep-24 22:58N 47°03' W 122°53'0 0.0
2017-Sep-24 22:28N 47°03' W 122°53'0 0.0
2017-Sep-24 21:59N 47°03' W 122°53'0 0.0
2017-Sep-24 21:29N 47°03' W 122°53'0 0.0
2017-Sep-24 21:00N 47°03' W 122°53'0 0.0
2017-Sep-24 20:27N 47°03' W 122°53'0 0.1
2017-Sep-24 20:00N 47°03' W 122°53'1 1.4
2017-Sep-24 19:30N 47°02' W 122°53'2550.6
2017-Sep-24 19:00N 46°37' W 122°56'3059.6
2017-Sep-24 18:30N 46°08' W 122°54'3057.4
2017-Sep-24 17:59N 45°40' W 122°40'918.1
2017-Sep-24 17:29N 45°30' W 122°40'0 0.0
2017-Sep-24 16:59N 45°30' W 122°40'0 0.0
2017-Sep-24 16:30N 45°30' W 122°40'0 0.0
2017-Sep-24 15:59N 45°30' W 122°40'0 0.0
2017-Sep-24 15:29N 45°30' W 122°40'0 0.0
2017-Sep-24 14:59N 45°30' W 122°40'0 0.0
2017-Sep-24 05:18N 45°30' W 122°40'0 0.0
2017-Sep-24 04:58N 45°30' W 122°40'0 0.0
2017-Sep-24 04:28N 45°30' W 122°40'0 0.0
2017-Sep-24 03:58N 45°30' W 122°40'0 0.0
2017-Sep-24 03:28N 45°30' W 122°40'0 0.0
2017-Sep-24 02:58N 45°30' W 122°40'0 0.0
2017-Sep-24 02:27N 45°30' W 122°40'0 0.0
2017-Sep-24 02:00N 45°30' W 122°40'0 0.0
2017-Sep-24 01:27N 45°30' W 122°40'0 0.0
2017-Sep-24 00:59N 45°30' W 122°40'0 0.0
2017-Sep-24 00:29N 45°30' W 122°40'0 0.0
2017-Sep-23 23:58N 45°30' W 122°40'0 0.0
2017-Sep-23 23:27N 45°30' W 122°40'0 0.0
2017-Sep-23 23:00N 45°30' W 122°40'1 1.7
2017-Sep-23 22:28N 45°31' W 122°40'0 0.1
2017-Sep-23 22:00N 45°31' W 122°40'1 1.4
2017-Sep-23 21:29N 45°31' W 122°40'0 0.6
2017-Sep-23 20:58N 45°30' W 122°40'3 5.2
2017-Sep-23 20:28N 45°28' W 122°39'0 0.0
2017-Sep-23 19:58N 45°28' W 122°39'3 0.1
2017-Sep-22 01:58N 45°30' W 122°40'0 0.1
2017-Sep-22 01:28N 45°30' W 122°40'0 0.0
2017-Sep-22 00:58N 45°30' W 122°40'0 0.1
2017-Sep-22 00:28N 45°30' W 122°40'0 0.0
2017-Sep-21 23:58N 45°30' W 122°40'0 0.0
2017-Sep-21 23:28N 45°30' W 122°40'0 0.0
2017-Sep-21 22:58N 45°30' W 122°40'0 0.0
2017-Sep-21 22:27N 45°30' W 122°40'0 0.5
2017-Sep-21 22:00N 45°30' W 122°41'0 0.4
2017-Sep-21 21:30N 45°30' W 122°40'0 0.0
2017-Sep-21 20:57N 45°30' W 122°40'0 0.0
2017-Sep-21 20:28N 45°30' W 122°40'0 0.0
2017-Sep-21 20:00N 45°30' W 122°40'611.2
2017-Sep-21 19:28N 45°35' W 122°36'1 1.2
2017-Sep-21 18:59N 45°35' W 122°35'611.2
2017-Sep-21 18:29N 45°31' W 122°40'1 1.3
2017-Sep-21 17:59N 45°30' W 122°40'0 0.0
2017-Sep-21 17:29N 45°30' W 122°40'0 0.0
2017-Sep-21 16:59N 45°30' W 122°40'0 0.0
2017-Sep-21 16:30N 45°30' W 122°40'0 0.0
2017-Sep-21 15:59N 45°30' W 122°40'0 0.0
2017-Sep-21 15:29N 45°30' W 122°40'0 0.0
2017-Sep-21 14:59N 45°30' W 122°40'0 0.0
2017-Sep-21 14:30N 45°30' W 122°40'0 0.0
2017-Sep-21 14:00N 45°30' W 122°40'0 0.0
2017-Sep-21 13:27N 45°30' W 122°40'0 0.0
2017-Sep-21 13:01N 45°30' W 122°40'0 0.0
2017-Sep-21 12:28N 45°30' W 122°40'0 0.0
2017-Sep-21 11:59N 45°30' W 122°40'0 0.0
2017-Sep-21 11:29N 45°30' W 122°40'0 0.0
2017-Sep-21 11:00N 45°30' W 122°40'0 0.0
2017-Sep-21 10:29N 45°30' W 122°40'0 0.0
2017-Sep-21 10:00N 45°30' W 122°40'0 0.0
2017-Sep-21 09:30N 45°30' W 122°40'0 0.0
2017-Sep-21 09:00N 45°30' W 122°40'0 0.0
2017-Sep-21 08:30N 45°30' W 122°40'0 0.0
2017-Sep-21 07:58N 45°30' W 122°40'0 0.0
2017-Sep-21 07:29N 45°30' W 122°40'0 0.0
2017-Sep-21 06:59N 45°30' W 122°40'0 0.0
2017-Sep-21 06:30N 45°30' W 122°40'0 0.0
2017-Sep-21 06:00N 45°30' W 122°40'0 0.0
2017-Sep-21 05:27N 45°30' W 122°40'0 0.0
2017-Sep-21 04:57N 45°30' W 122°40'0 0.0
2017-Sep-21 04:28N 45°30' W 122°40'0 0.0
2017-Sep-21 03:58N 45°30' W 122°40'0 0.4
2017-Sep-21 03:28N 45°31' W 122°40'0 0.0
2017-Sep-21 02:59N 45°31' W 122°40'0 0.2
2017-Sep-21 02:28N 45°31' W 122°40'0 0.1
2017-Sep-21 01:58N 45°31' W 122°40'0 0.2
2017-Sep-21 01:29N 45°30' W 122°40'0 0.1
2017-Sep-21 01:00N 45°30' W 122°40'0 0.0
2017-Sep-21 00:29N 45°30' W 122°40'0 0.0
2017-Sep-20 23:59N 45°30' W 122°40'0 0.0
2017-Sep-20 23:29N 45°30' W 122°40'0 0.0
2017-Sep-20 22:59N 45°30' W 122°40'0 0.0
2017-Sep-20 22:29N 45°30' W 122°40'1 2.7
2017-Sep-20 22:00N 45°32' W 122°40'4 9.0
2017-Sep-20 21:30N 45°36' W 122°41'2856.1
2017-Sep-20 21:00N 46°03' W 122°52'3260.2
2017-Sep-20 20:28N 46°35' W 122°54'2550.0
2017-Sep-20 19:59N 46°60' W 122°55'0 0.3
2017-Sep-20 19:29N 46°60' W 122°55'3 6.0
2017-Sep-20 18:57N 47°03' W 122°54'1 1.2
2017-Sep-20 18:30N 47°03' W 122°53'0 0.0
2017-Sep-20 17:58N 47°03' W 122°53'0 0.0
2017-Sep-20 17:28N 47°03' W 122°53'0 0.0
2017-Sep-20 16:58N 47°03' W 122°53'0 0.0
2017-Sep-20 16:30N 47°03' W 122°53'0 0.0
2017-Sep-20 15:58N 47°03' W 122°53'0 0.0
2017-Sep-20 15:29N 47°03' W 122°53'0 0.0
2017-Sep-20 14:58N 47°03' W 122°53'0 0.0
2017-Sep-20 13:59N 47°03' W 122°53'0 0.0
2017-Sep-20 13:29N 47°03' W 122°53'0 0.0
2017-Sep-20 12:59N 47°03' W 122°53'0 0.0
2017-Sep-20 12:30N 47°03' W 122°53'0 0.0
2017-Sep-20 12:00N 47°03' W 122°53'0 0.0
2017-Sep-20 11:28N 47°03' W 122°53'0 0.0
2017-Sep-20 10:57N 47°03' W 122°53'0 0.0
2017-Sep-20 10:28N 47°03' W 122°53'0 0.0
2017-Sep-20 09:58N 47°03' W 122°53'0 0.0
2017-Sep-20 09:28N 47°03' W 122°53'0 0.0
2017-Sep-20 08:58N 47°03' W 122°53'0 0.0
2017-Sep-20 08:28N 47°03' W 122°53'0 0.0
2017-Sep-20 07:58N 47°03' W 122°53'0 0.0
2017-Sep-20 07:29N 47°03' W 122°53'0 0.0
2017-Sep-20 06:59N 47°03' W 122°53'0 0.0
2017-Sep-20 06:29N 47°03' W 122°53'0 0.0
2017-Sep-20 05:59N 47°03' W 122°53'0 0.0
2017-Sep-20 05:30N 47°03' W 122°53'0 0.0
2017-Sep-20 04:59N 47°03' W 122°53'0 0.0
2017-Sep-20 04:30N 47°03' W 122°53'0 0.0
2017-Sep-20 04:00N 47°03' W 122°53'0 0.0
2017-Sep-20 03:28N 47°03' W 122°53'0 0.0
2017-Sep-20 03:00N 47°03' W 122°53'0 0.0
2017-Sep-20 02:28N 47°03' W 122°53'  
Track history (hours):
 
Tides and Currents Weather Stations Pressure Air Temp Water Temp Dewpoint Dewpoint Depression Visibility Wind Speed Wind Dir Waves Ship Positions

Kimberly

Owner: Jelcick, Thomas G, Hansville, WA. More information available from US FCC via Universal Licensing System and Coast Guard Vessel Documentation Center.

Last reported at 2017-Sep-30 01:59 UTC. Time now 2017-Oct-22 19:10 UTC.
Position N 47°44' W 122°33'.
Warning: this ship's position is 22 days out of date.

Length 33 m; draft 7 m.

Type: Sailing vessel. MMSI: 367389630.

Date/timePositionNaut miles runAvg speedWind from/ knotsBaromVisibWave heightAir tempDewpointWater temp
2017-Sep-30 01:59N 47°44' W 122°33'0 0.0
2017-Sep-30 01:28N 47°44' W 122°33'0 0.0
2017-Sep-30 00:58N 47°44' W 122°33'0 0.0
2017-Sep-30 00:28N 47°44' W 122°33'0 0.0
2017-Sep-29 23:58N 47°44' W 122°33'0 0.0
2017-Sep-29 23:27N 47°44' W 122°33'5 9.3
2017-Sep-29 22:58N 47°48' W 122°30'0 0.0
2017-Sep-29 22:29N 47°48' W 122°30'0 0.0
2017-Sep-29 21:58N 47°48' W 122°30'0 0.0
2017-Sep-29 21:30N 47°48' W 122°30'510.0
2017-Sep-29 20:59N 47°46' W 122°37'2 3.6
2017-Sep-29 20:28N 47°45' W 122°40'818.6
2017-Sep-29 20:00N 47°37' W 122°43'2545.3
2017-Sep-29 19:27N 47°14' W 122°28'2038.8
2017-Sep-29 18:56N 47°02' W 122°52'1 2.4
2017-Sep-29 18:28N 47°03' W 122°53'0 0.0
2017-Sep-29 18:00N 47°03' W 122°53'0 0.0
2017-Sep-29 17:27N 47°03' W 122°53'511.3
2017-Sep-29 17:00N 46°58' W 122°56'3 5.3
2017-Sep-29 16:29N 46°56' W 122°53'511.5
2017-Sep-29 16:00N 47°02' W 122°54'1 2.3
2017-Sep-29 15:28N 47°03' W 122°53'0 0.0
2017-Sep-29 14:58N 47°03' W 122°53'0 0.0
2017-Sep-29 14:28N 47°03' W 122°53'0 0.0
2017-Sep-29 13:59N 47°03' W 122°53'0 0.0
2017-Sep-29 13:29N 47°03' W 122°53'0 0.0
2017-Sep-29 13:00N 47°03' W 122°53'0 0.0
2017-Sep-29 12:30N 47°03' W 122°53'0 0.0
2017-Sep-29 11:57N 47°03' W 122°53'0 0.0
2017-Sep-29 11:28N 47°03' W 122°53'0 0.0
2017-Sep-29 10:57N 47°03' W 122°53'0 0.0
2017-Sep-29 10:28N 47°03' W 122°53'0 0.0
2017-Sep-29 09:59N 47°03' W 122°53'0 0.0
2017-Sep-29 09:28N 47°03' W 122°53'0 0.0
2017-Sep-29 08:59N 47°03' W 122°53'0 0.0
2017-Sep-29 08:29N 47°03' W 122°53'0 0.0
2017-Sep-29 08:00N 47°03' W 122°53'0 0.0
2017-Sep-29 07:30N 47°03' W 122°53'0 0.0
2017-Sep-29 06:57N 47°03' W 122°53'0 0.0
2017-Sep-29 06:28N 47°03' W 122°53'0 0.0
2017-Sep-29 05:59N 47°03' W 122°53'0 0.0
2017-Sep-29 05:29N 47°03' W 122°53'0 0.0
2017-Sep-29 05:00N 47°03' W 122°53'0 0.0
2017-Sep-29 04:30N 47°03' W 122°53'0 0.0
2017-Sep-29 04:00N 47°03' W 122°53'0 0.1
2017-Sep-29 03:27N 47°03' W 122°53'0 0.1
2017-Sep-29 03:00N 47°03' W 122°53'0 0.0
2017-Sep-29 02:30N 47°03' W 122°53'0 0.0
2017-Sep-29 01:58N 47°03' W 122°53'0 0.0
2017-Sep-29 01:29N 47°03' W 122°53'0 0.0
2017-Sep-29 00:58N 47°03' W 122°53'0 0.0
2017-Sep-29 00:29N 47°03' W 122°53'0 0.0
2017-Sep-28 23:59N 47°03' W 122°53'0 0.1
2017-Sep-28 23:29N 47°03' W 122°54'713.3
2017-Sep-28 22:59N 46°56' W 122°53'0 0.0
2017-Sep-28 22:29N 46°56' W 122°53'0 0.0
2017-Sep-28 22:00N 46°56' W 122°53'0 0.0
2017-Sep-28 21:28N 46°56' W 122°53'3 6.0
2017-Sep-28 20:59N 46°59' W 122°54'4 8.0
2017-Sep-28 20:29N 47°03' W 122°53'0 0.1
2017-Sep-28 20:00N 47°03' W 122°54'0 0.1
2017-Sep-28 19:30N 47°03' W 122°53'0 0.0
2017-Sep-28 18:57N 47°03' W 122°53'0 0.8
2017-Sep-28 18:30N 47°03' W 122°54'2 3.6
2017-Sep-28 17:58N 47°03' W 122°56'3 4.4
2017-Sep-28 17:21N 47°02' W 122°52'1 3.0
2017-Sep-28 16:59N 47°03' W 122°53'1 0.9
2017-Sep-28 15:49N 47°02' W 122°53'1 2.9
2017-Sep-28 15:27N 47°03' W 122°53'0 0.0
2017-Sep-28 14:58N 47°03' W 122°53'0 0.0
2017-Sep-28 14:28N 47°03' W 122°53'0 0.0
2017-Sep-28 05:32N 47°03' W 122°53'0 0.2
2017-Sep-28 05:29N 47°03' W 122°53'0 0.0
2017-Sep-28 05:00N 47°03' W 122°53'0 0.0
2017-Sep-28 04:28N 47°03' W 122°53'0 0.0
2017-Sep-28 03:57N 47°03' W 122°53'0 0.0
2017-Sep-28 03:28N 47°03' W 122°53'0 0.0
2017-Sep-28 03:00N 47°03' W 122°53'0 0.0
2017-Sep-28 02:30N 47°03' W 122°53'0 0.0
2017-Sep-28 01:57N 47°03' W 122°53'0 0.0
2017-Sep-28 01:28N 47°03' W 122°53'0 0.0
2017-Sep-28 01:00N 47°03' W 122°53'0 0.1
2017-Sep-28 00:29N 47°03' W 122°54'6 9.9
2017-Sep-27 23:54N 47°04' W 122°45'1025.2
2017-Sep-27 23:30N 47°11' W 122°34'0 0.0
2017-Sep-27 23:00N 47°11' W 122°34'1 2.6
2017-Sep-27 22:30N 47°10' W 122°36'1427.5
2017-Sep-27 21:59N 47°03' W 122°54'1 1.1
2017-Sep-27 21:28N 47°03' W 122°53'0 0.0
2017-Sep-27 21:00N 47°03' W 122°53'0 0.0
2017-Sep-27 20:30N 47°03' W 122°53'0 0.0
2017-Sep-27 19:58N 47°03' W 122°53'0 0.1
2017-Sep-27 19:29N 47°03' W 122°54'0 0.1
2017-Sep-27 18:59N 47°03' W 122°53'0 0.0
2017-Sep-27 18:29N 47°03' W 122°53'0 0.0
2017-Sep-27 18:00N 47°03' W 122°53'0 0.0
2017-Sep-27 17:29N 47°03' W 122°53'0 0.0
2017-Sep-27 17:00N 47°03' W 122°53'0 0.0
2017-Sep-27 16:30N 47°03' W 122°53'0 0.0
2017-Sep-27 16:00N 47°03' W 122°53'0 0.0
2017-Sep-27 15:30N 47°03' W 122°53'0 0.0
2017-Sep-27 15:00N 47°03' W 122°53'0 0.0
2017-Sep-27 04:48N 47°03' W 122°53'0 0.0
2017-Sep-27 04:30N 47°03' W 122°53'0 0.0
2017-Sep-27 03:57N 47°03' W 122°53'0 0.0
2017-Sep-27 03:28N 47°03' W 122°53'0 0.0
2017-Sep-27 02:59N 47°03' W 122°53'0 0.0
2017-Sep-27 02:29N 47°03' W 122°53'0 0.0
2017-Sep-27 01:59N 47°03' W 122°53'0 0.0
2017-Sep-27 01:30N 47°03' W 122°53'0 0.0
2017-Sep-27 01:00N 47°03' W 122°53'0 0.0
2017-Sep-27 00:30N 47°03' W 122°53'0 0.0
2017-Sep-27 00:00N 47°03' W 122°53'0 0.0
2017-Sep-26 23:30N 47°03' W 122°53'0 0.0
2017-Sep-26 23:00N 47°03' W 122°53'0 0.0
2017-Sep-26 22:30N 47°03' W 122°53'0 0.0
2017-Sep-26 21:57N 47°03' W 122°53'0 0.0
2017-Sep-26 21:30N 47°03' W 122°53'0 0.0
2017-Sep-26 20:59N 47°03' W 122°53'0 0.0
2017-Sep-26 20:29N 47°03' W 122°53'0 0.0
2017-Sep-26 19:59N 47°03' W 122°53'0 0.0
2017-Sep-26 19:27N 47°03' W 122°53'0 0.0
2017-Sep-26 18:59N 47°03' W 122°53'0 0.0
2017-Sep-26 18:29N 47°03' W 122°53'0 0.0
2017-Sep-26 18:00N 47°03' W 122°53'0 0.0
2017-Sep-26 17:30N 47°03' W 122°53'0 0.0
2017-Sep-26 17:00N 47°03' W 122°53'0 0.0
2017-Sep-26 16:29N 47°03' W 122°53'0 0.0
2017-Sep-26 16:00N 47°03' W 122°53'0 0.0
2017-Sep-26 15:30N 47°03' W 122°53'0 0.0
2017-Sep-26 14:59N 47°03' W 122°53'0 0.0
2017-Sep-26 14:26N 47°03' W 122°53'0 0.0
2017-Sep-26 13:59N 47°03' W 122°53'0 0.0
2017-Sep-26 13:30N 47°03' W 122°53'0 0.0
2017-Sep-26 12:59N 47°03' W 122°53'0 0.0
2017-Sep-26 12:30N 47°03' W 122°53'0 0.0
2017-Sep-26 11:57N 47°03' W 122°53'0 0.0
2017-Sep-26 11:28N 47°03' W 122°53'0 0.0
2017-Sep-26 10:58N 47°03' W 122°53'0 0.0
2017-Sep-26 10:28N 47°03' W 122°53'0 0.0
2017-Sep-26 09:58N 47°03' W 122°53'0 0.0
2017-Sep-26 09:29N 47°03' W 122°53'0 0.0
2017-Sep-26 09:00N 47°03' W 122°53'0 0.0
2017-Sep-26 08:30N 47°03' W 122°53'0 0.0
2017-Sep-26 08:00N 47°03' W 122°53'0 0.0
2017-Sep-26 07:27N 47°03' W 122°53'0 0.0
2017-Sep-26 06:58N 47°03' W 122°53'0 0.0
2017-Sep-26 06:28N 47°03' W 122°53'0 0.0
2017-Sep-26 05:59N 47°03' W 122°53'0 0.0
2017-Sep-26 05:30N 47°03' W 122°53'0 0.0
2017-Sep-26 04:57N 47°03' W 122°53'0 0.0
2017-Sep-26 01:37N 47°03' W 122°53'0 0.1
2017-Sep-26 01:30N 47°03' W 122°53'0 0.0
2017-Sep-26 00:58N 47°03' W 122°53'0 0.0
2017-Sep-26 00:28N 47°03' W 122°53'0 0.0
2017-Sep-25 23:58N 47°03' W 122°53'0 0.1
2017-Sep-25 23:28N 47°03' W 122°54'1 1.6
2017-Sep-25 22:59N 47°04' W 122°54'0 1.1
2017-Sep-25 22:31N 47°04' W 122°54'0 0.0
2017-Sep-25 21:59N 47°04' W 122°54'0 0.0
2017-Sep-25 21:28N 47°04' W 122°54'1 1.4
2017-Sep-25 20:59N 47°03' W 122°53'0 0.0
2017-Sep-25 20:30N 47°03' W 122°53'0 0.0
2017-Sep-25 20:00N 47°03' W 122°53'0 0.0
2017-Sep-25 19:30N 47°03' W 122°53'0 0.0
2017-Sep-25 18:59N 47°03' W 122°53'0 0.0
2017-Sep-25 18:29N 47°03' W 122°53'0 0.0
2017-Sep-25 18:00N 47°03' W 122°53'0 0.0
2017-Sep-25 17:30N 47°03' W 122°53'0 0.0
2017-Sep-25 16:57N 47°03' W 122°53'0 0.0
2017-Sep-25 16:30N 47°03' W 122°53'0 0.0
2017-Sep-25 16:00N 47°03' W 122°53'0 0.0
2017-Sep-25 15:30N 47°03' W 122°53'0 0.0
2017-Sep-25 15:00N 47°03' W 122°53'0 0.0
2017-Sep-25 14:30N 47°03' W 122°53'0 0.0
2017-Sep-25 13:54N 47°03' W 122°53'0 0.0
2017-Sep-25 13:29N 47°03' W 122°53'0 0.0
2017-Sep-25 12:59N 47°03' W 122°53'0 0.0
2017-Sep-25 12:30N 47°03' W 122°53'0 0.0
2017-Sep-25 12:00N 47°03' W 122°53'0 0.0
2017-Sep-25 11:27N 47°03' W 122°53'0 0.0
2017-Sep-25 10:58N 47°03' W 122°53'0 0.0
2017-Sep-25 10:28N 47°03' W 122°53'0 0.0
2017-Sep-25 09:59N 47°03' W 122°53'0 0.0
2017-Sep-25 09:29N 47°03' W 122°53'0 0.0
2017-Sep-25 09:00N 47°03' W 122°53'0 0.0
2017-Sep-25 08:30N 47°03' W 122°53'0 0.0
2017-Sep-25 07:57N 47°03' W 122°53'0 0.0
2017-Sep-25 07:28N 47°03' W 122°53'0 0.0
2017-Sep-25 06:59N 47°03' W 122°53'0 0.0
2017-Sep-25 06:29N 47°03' W 122°53'0 0.0
2017-Sep-25 06:00N 47°03' W 122°53'0 0.0
2017-Sep-25 05:30N 47°03' W 122°53'0 0.0
2017-Sep-25 04:58N 47°03' W 122°53'0 0.0
2017-Sep-25 04:28N 47°03' W 122°53'0 0.0
2017-Sep-25 03:59N 47°03' W 122°53'0 0.0
2017-Sep-25 03:28N 47°03' W 122°53'0 0.0
2017-Sep-25 02:58N 47°03' W 122°53'0 0.0
2017-Sep-25 02:30N 47°03' W 122°53'0 0.0
2017-Sep-25 02:00N 47°03' W 122°53'0 0.0
2017-Sep-25 01:27N 47°03' W 122°53'0 0.0
2017-Sep-25 01:00N 47°03' W 122°53'0 0.0
2017-Sep-25 00:27N 47°03' W 122°53'0 0.0
2017-Sep-25 00:00N 47°03' W 122°53'0 0.0
2017-Sep-24 23:27N 47°03' W 122°53'0 0.0
2017-Sep-24 22:58N 47°03' W 122°53'0 0.0
2017-Sep-24 22:28N 47°03' W 122°53'0 0.0
2017-Sep-24 21:59N 47°03' W 122°53'0 0.0
2017-Sep-24 21:29N 47°03' W 122°53'0 0.0
2017-Sep-24 21:00N 47°03' W 122°53'0 0.0
2017-Sep-24 20:27N 47°03' W 122°53'0 0.1
2017-Sep-24 20:00N 47°03' W 122°53'1 1.4
2017-Sep-24 19:30N 47°02' W 122°53'2550.6
2017-Sep-24 19:00N 46°37' W 122°56'3059.6
2017-Sep-24 18:30N 46°08' W 122°54'3057.4
2017-Sep-24 17:59N 45°40' W 122°40'918.1
2017-Sep-24 17:29N 45°30' W 122°40'0 0.0
2017-Sep-24 16:59N 45°30' W 122°40'0 0.0
2017-Sep-24 16:30N 45°30' W 122°40'0 0.0
2017-Sep-24 15:59N 45°30' W 122°40'0 0.0
2017-Sep-24 15:29N 45°30' W 122°40'0 0.0
2017-Sep-24 14:59N 45°30' W 122°40'0 0.0
2017-Sep-24 05:18N 45°30' W 122°40'0 0.0
2017-Sep-24 04:58N 45°30' W 122°40'0 0.0
2017-Sep-24 04:28N 45°30' W 122°40'0 0.0
2017-Sep-24 03:58N 45°30' W 122°40'0 0.0
2017-Sep-24 03:28N 45°30' W 122°40'0 0.0
2017-Sep-24 02:58N 45°30' W 122°40'0 0.0
2017-Sep-24 02:27N 45°30' W 122°40'0 0.0
2017-Sep-24 02:00N 45°30' W 122°40'0 0.0
2017-Sep-24 01:27N 45°30' W 122°40'0 0.0
2017-Sep-24 00:59N 45°30' W 122°40'0 0.0
2017-Sep-24 00:29N 45°30' W 122°40'0 0.0
2017-Sep-23 23:58N 45°30' W 122°40'0 0.0
2017-Sep-23 23:27N 45°30' W 122°40'0 0.0
2017-Sep-23 23:00N 45°30' W 122°40'1 1.7
2017-Sep-23 22:28N 45°31' W 122°40'0 0.1
2017-Sep-23 22:00N 45°31' W 122°40'1 1.4
2017-Sep-23 21:29N 45°31' W 122°40'0 0.6
2017-Sep-23 20:58N 45°30' W 122°40'3 5.2
2017-Sep-23 20:28N 45°28' W 122°39'0 0.0
2017-Sep-23 19:58N 45°28' W 122°39'3 0.1
2017-Sep-22 01:58N 45°30' W 122°40'0 0.1
2017-Sep-22 01:28N 45°30' W 122°40'0 0.0
2017-Sep-22 00:58N 45°30' W 122°40'0 0.1
2017-Sep-22 00:28N 45°30' W 122°40'0 0.0
2017-Sep-21 23:58N 45°30' W 122°40'0 0.0
2017-Sep-21 23:28N 45°30' W 122°40'0 0.0
2017-Sep-21 22:58N 45°30' W 122°40'0 0.0
2017-Sep-21 22:27N 45°30' W 122°40'0 0.5
2017-Sep-21 22:00N 45°30' W 122°41'0 0.4
2017-Sep-21 21:30N 45°30' W 122°40'0 0.0
2017-Sep-21 20:57N 45°30' W 122°40'0 0.0
2017-Sep-21 20:28N 45°30' W 122°40'0 0.0
2017-Sep-21 20:00N 45°30' W 122°40'611.2
2017-Sep-21 19:28N 45°35' W 122°36'1 1.2
2017-Sep-21 18:59N 45°35' W 122°35'611.2
2017-Sep-21 18:29N 45°31' W 122°40'1 1.3
2017-Sep-21 17:59N 45°30' W 122°40'0 0.0
2017-Sep-21 17:29N 45°30' W 122°40'0 0.0
2017-Sep-21 16:59N 45°30' W 122°40'0 0.0
2017-Sep-21 16:30N 45°30' W 122°40'0 0.0
2017-Sep-21 15:59N 45°30' W 122°40'0 0.0
2017-Sep-21 15:29N 45°30' W 122°40'0 0.0
2017-Sep-21 14:59N 45°30' W 122°40'0 0.0
2017-Sep-21 14:30N 45°30' W 122°40'0 0.0
2017-Sep-21 14:00N 45°30' W 122°40'0 0.0
2017-Sep-21 13:27N 45°30' W 122°40'0 0.0
2017-Sep-21 13:01N 45°30' W 122°40'0 0.0
2017-Sep-21 12:28N 45°30' W 122°40'0 0.0
2017-Sep-21 11:59N 45°30' W 122°40'0 0.0
2017-Sep-21 11:29N 45°30' W 122°40'0 0.0
2017-Sep-21 11:00N 45°30' W 122°40'0 0.0
2017-Sep-21 10:29N 45°30' W 122°40'0 0.0
2017-Sep-21 10:00N 45°30' W 122°40'0 0.0
2017-Sep-21 09:30N 45°30' W 122°40'0 0.0
2017-Sep-21 09:00N 45°30' W 122°40'0 0.0
2017-Sep-21 08:30N 45°30' W 122°40'0 0.0
2017-Sep-21 07:58N 45°30' W 122°40'0 0.0
2017-Sep-21 07:29N 45°30' W 122°40'0 0.0
2017-Sep-21 06:59N 45°30' W 122°40'0 0.0
2017-Sep-21 06:30N 45°30' W 122°40'0 0.0
2017-Sep-21 06:00N 45°30' W 122°40'0 0.0
2017-Sep-21 05:27N 45°30' W 122°40'0 0.0
2017-Sep-21 04:57N 45°30' W 122°40'0 0.0
2017-Sep-21 04:28N 45°30' W 122°40'0 0.0
2017-Sep-21 03:58N 45°30' W 122°40'0 0.4
2017-Sep-21 03:28N 45°31' W 122°40'0 0.0
2017-Sep-21 02:59N 45°31' W 122°40'0 0.2
2017-Sep-21 02:28N 45°31' W 122°40'0 0.1
2017-Sep-21 01:58N 45°31' W 122°40'0 0.2
2017-Sep-21 01:29N 45°30' W 122°40'0 0.1
2017-Sep-21 01:00N 45°30' W 122°40'0 0.0
2017-Sep-21 00:29N 45°30' W 122°40'0 0.0
2017-Sep-20 23:59N 45°30' W 122°40'0 0.0
2017-Sep-20 23:29N 45°30' W 122°40'0 0.0
2017-Sep-20 22:59N 45°30' W 122°40'0 0.0
2017-Sep-20 22:29N 45°30' W 122°40'1 2.7
2017-Sep-20 22:00N 45°32' W 122°40'4 9.0
2017-Sep-20 21:30N 45°36' W 122°41'2856.1
2017-Sep-20 21:00N 46°03' W 122°52'3260.2
2017-Sep-20 20:28N 46°35' W 122°54'2550.0
2017-Sep-20 19:59N 46°60' W 122°55'0 0.3
2017-Sep-20 19:29N 46°60' W 122°55'3 6.0
2017-Sep-20 18:57N 47°03' W 122°54'1 1.2
2017-Sep-20 18:30N 47°03' W 122°53'0 0.0
2017-Sep-20 17:58N 47°03' W 122°53'0 0.0
2017-Sep-20 17:28N 47°03' W 122°53'0 0.0
2017-Sep-20 16:58N 47°03' W 122°53'0 0.0
2017-Sep-20 16:30N 47°03' W 122°53'0 0.0
2017-Sep-20 15:58N 47°03' W 122°53'0 0.0
2017-Sep-20 15:29N 47°03' W 122°53'0 0.0
2017-Sep-20 14:58N 47°03' W 122°53'0 0.0
2017-Sep-20 13:59N 47°03' W 122°53'0 0.0
2017-Sep-20 13:29N 47°03' W 122°53'0 0.0
2017-Sep-20 12:59N 47°03' W 122°53'0 0.0
2017-Sep-20 12:30N 47°03' W 122°53'0 0.0
2017-Sep-20 12:00N 47°03' W 122°53'0 0.0
2017-Sep-20 11:28N 47°03' W 122°53'0 0.0
2017-Sep-20 10:57N 47°03' W 122°53'0 0.0
2017-Sep-20 10:28N 47°03' W 122°53'0 0.0
2017-Sep-20 09:58N 47°03' W 122°53'0 0.0
2017-Sep-20 09:28N 47°03' W 122°53'0 0.0
2017-Sep-20 08:58N 47°03' W 122°53'0 0.0
2017-Sep-20 08:28N 47°03' W 122°53'0 0.0
2017-Sep-20 07:58N 47°03' W 122°53'0 0.0
2017-Sep-20 07:29N 47°03' W 122°53'0 0.0
2017-Sep-20 06:59N 47°03' W 122°53'0 0.0
2017-Sep-20 06:29N 47°03' W 122°53'0 0.0
2017-Sep-20 05:59N 47°03' W 122°53'0 0.0
2017-Sep-20 05:30N 47°03' W 122°53'0 0.0
2017-Sep-20 04:59N 47°03' W 122°53'0 0.0
2017-Sep-20 04:30N 47°03' W 122°53'0 0.0
2017-Sep-20 04:00N 47°03' W 122°53'0 0.0
2017-Sep-20 03:28N 47°03' W 122°53'0 0.0
2017-Sep-20 03:00N 47°03' W 122°53'0 0.0
2017-Sep-20 02:28N 47°03' W 122°53'  

Dump ship's entire track history